createdAt,value
2018-11-01T00:01:51.148Z,3.70
2018-11-01T00:04:19.428Z,4.10
2018-11-01T00:06:47.732Z,3.60
2018-11-01T00:09:16.081Z,3.93
2018-11-01T00:11:44.412Z,3.83
2018-11-01T00:14:12.684Z,3.13
2018-11-01T00:16:40.991Z,3.40
2018-11-01T00:19:09.289Z,3.87
2018-11-01T00:21:37.635Z,3.90
2018-11-01T00:24:05.971Z,3.40
2018-11-01T00:26:34.401Z,4.43
2018-11-01T00:29:02.781Z,4.10
2018-11-01T00:31:31.100Z,3.17
2018-11-01T00:33:59.492Z,3.90
2018-11-01T00:36:27.792Z,3.83
2018-11-01T00:38:56.104Z,4.30
2018-11-01T00:41:24.400Z,4.03
2018-11-01T00:43:52.774Z,4.13
2018-11-01T00:46:21.058Z,4.23
2018-11-01T00:48:49.466Z,3.87
2018-11-01T00:51:17.846Z,4.03
2018-11-01T00:53:46.214Z,4.47
2018-11-01T00:56:14.501Z,4.03
2018-11-01T00:58:42.850Z,4.20
2018-11-01T01:01:11.156Z,4.00
2018-11-01T01:03:39.508Z,3.63
2018-11-01T01:06:07.792Z,4.57
2018-11-01T01:08:36.104Z,4.47
2018-11-01T01:11:04.537Z,5.00
2018-11-01T01:13:32.924Z,5.40
2018-11-01T01:16:01.216Z,5.17
2018-11-01T01:18:29.528Z,5.10
2018-11-01T01:20:57.877Z,5.60
2018-11-01T01:23:26.256Z,5.07
2018-11-01T01:25:54.630Z,4.70
2018-11-01T01:28:23.029Z,5.23
2018-11-01T01:30:51.473Z,5.27
2018-11-01T01:33:19.922Z,4.80
2018-11-01T01:35:48.233Z,4.97
2018-11-01T01:38:16.556Z,5.43
2018-11-01T01:40:44.849Z,5.33
2018-11-01T01:43:13.281Z,5.03
2018-11-01T01:45:41.581Z,5.33
2018-11-01T01:48:09.875Z,5.03
2018-11-01T01:50:38.216Z,5.40
2018-11-01T01:53:06.557Z,5.37
2018-11-01T01:55:34.847Z,5.33
2018-11-01T01:58:03.200Z,5.43
2018-11-01T02:00:31.512Z,5.43
2018-11-01T02:02:59.888Z,5.33
2018-11-01T02:05:28.255Z,6.00
2018-11-01T02:07:56.628Z,6.33
2018-11-01T02:10:24.915Z,5.53
2018-11-01T02:12:53.273Z,5.47
2018-11-01T02:15:22.019Z,6.00
2018-11-01T02:17:50.361Z,6.33
2018-11-01T02:20:19.831Z,6.40
2018-11-01T02:22:48.184Z,6.70
2018-11-01T02:25:16.503Z,6.97
2018-11-01T02:27:50.324Z,6.60
2018-11-01T02:30:19.291Z,6.43
2018-11-01T02:32:47.639Z,6.80
2018-11-01T02:35:17.063Z,5.80
2018-11-01T02:37:45.673Z,6.77
2018-11-01T02:40:14.550Z,7.20
2018-11-01T02:42:43.310Z,7.03
2018-11-01T02:45:12.645Z,7.40
2018-11-01T02:47:40.979Z,6.80
2018-11-01T02:50:10.095Z,6.53
2018-11-01T02:52:38.572Z,6.73
2018-11-01T02:55:07.369Z,5.90
2018-11-01T02:57:35.667Z,6.27
2018-11-01T03:00:04.104Z,6.87
2018-11-01T03:02:32.433Z,6.37
2018-11-01T03:05:00.863Z,6.77
2018-11-01T03:07:29.151Z,6.33
2018-11-01T03:09:57.466Z,6.13
2018-11-01T03:12:25.797Z,6.00
2018-11-01T03:14:54.126Z,6.43
2018-11-01T03:17:22.489Z,5.37
2018-11-01T03:19:50.867Z,6.80
2018-11-01T03:22:19.188Z,6.03
2018-11-01T03:24:47.556Z,5.37
2018-11-01T03:27:16.002Z,6.37
2018-11-01T03:29:44.334Z,5.60
2018-11-01T03:32:12.678Z,5.47
2018-11-01T03:34:41.011Z,6.20
2018-11-01T03:37:09.332Z,5.10
2018-11-01T03:39:37.739Z,5.50
2018-11-01T03:42:06.159Z,5.73
2018-11-01T03:44:34.467Z,5.10
2018-11-01T03:47:02.826Z,5.70
2018-11-01T03:49:31.167Z,5.53
2018-11-01T03:51:59.543Z,5.60
2018-11-01T03:54:27.868Z,6.23
2018-11-01T03:56:56.184Z,6.00
2018-11-01T03:59:24.489Z,6.67
2018-11-01T04:01:52.785Z,5.67
2018-11-01T04:04:21.099Z,6.27
2018-11-01T04:06:49.447Z,6.67
2018-11-01T04:09:17.772Z,7.13
2018-11-01T04:11:46.168Z,6.30
2018-11-01T04:14:14.476Z,6.33
2018-11-01T04:16:42.895Z,6.23
2018-11-01T04:19:11.161Z,6.30
2018-11-01T04:21:39.500Z,6.60
2018-11-01T04:24:07.775Z,5.90
2018-11-01T04:26:36.104Z,6.33
2018-11-01T04:29:04.781Z,6.10
2018-11-01T04:31:33.108Z,6.87
2018-11-01T04:34:01.582Z,7.23
2018-11-01T04:36:29.915Z,7.33
2018-11-01T04:38:58.204Z,6.53
2018-11-01T04:41:26.571Z,7.67
2018-11-01T04:43:54.895Z,7.63
2018-11-01T04:46:23.316Z,7.77
2018-11-01T04:48:51.648Z,7.03
2018-11-01T04:51:19.967Z,7.93
2018-11-01T04:53:48.278Z,7.10
2018-11-01T04:56:16.648Z,7.77
2018-11-01T04:58:45.017Z,7.57
2018-11-01T05:01:13.379Z,7.00
2018-11-01T05:03:41.707Z,7.07
2018-11-01T05:06:10.062Z,7.20
2018-11-01T05:08:38.411Z,6.80
2018-11-01T05:11:06.727Z,7.00
2018-11-01T05:13:36.671Z,6.93
2018-11-01T05:16:05.265Z,7.57
2018-11-01T05:18:33.598Z,8.07
2018-11-01T05:21:02.022Z,8.40
2018-11-01T05:23:30.352Z,8.17
2018-11-01T05:25:58.751Z,6.97
2018-11-01T05:28:27.020Z,7.83
2018-11-01T05:30:55.350Z,7.50
2018-11-01T05:33:23.696Z,7.40
2018-11-01T05:35:52.048Z,8.30
2018-11-01T05:38:20.347Z,7.90
2018-11-01T05:40:48.654Z,9.20
2018-11-01T05:43:22.395Z,9.07
2018-11-01T05:45:50.732Z,8.40
2018-11-01T05:48:19.091Z,10.00
2018-11-01T05:50:47.497Z,9.83
2018-11-01T05:53:15.812Z,8.57
2018-11-01T05:55:44.110Z,7.70
2018-11-01T05:58:12.463Z,8.00
2018-11-01T06:00:40.981Z,7.40
2018-11-01T06:03:09.296Z,7.70
2018-11-01T06:05:37.741Z,8.60
2018-11-01T06:08:22.437Z,9.00
2018-11-01T06:10:50.715Z,9.07
2018-11-01T06:13:19.036Z,9.10
2018-11-01T06:15:47.318Z,9.23
2018-11-01T06:18:15.626Z,8.90
2018-11-01T06:20:44.025Z,9.30
2018-11-01T06:23:12.267Z,9.10
2018-11-01T06:25:40.590Z,9.67
2018-11-01T06:28:08.947Z,9.70
2018-11-01T06:30:37.257Z,9.50
2018-11-01T06:33:05.689Z,10.73
2018-11-01T06:35:37.730Z,10.30
2018-11-01T06:38:06.588Z,10.17
2018-11-01T06:40:34.899Z,10.20
2018-11-01T06:43:03.263Z,9.60
2018-11-01T06:45:31.555Z,10.47
2018-11-01T06:47:59.867Z,11.13
2018-11-01T06:50:28.210Z,11.73
2018-11-01T06:52:56.529Z,12.57
2018-11-01T06:55:24.999Z,12.33
2018-11-01T06:57:53.436Z,13.97
2018-11-01T07:00:21.722Z,13.20
2018-11-01T07:02:50.072Z,13.20
2018-11-01T07:05:18.384Z,12.63
2018-11-01T07:07:46.708Z,12.10
2018-11-01T07:10:15.947Z,12.70
2018-11-01T07:12:44.421Z,13.43
2018-11-01T07:15:14.047Z,13.70
2018-11-01T07:17:43.408Z,13.27
2018-11-01T07:20:30.015Z,13.57
2018-11-01T07:22:58.410Z,13.17
2018-11-01T07:25:26.939Z,14.33
2018-11-01T07:27:55.371Z,13.73
2018-11-01T07:30:23.724Z,13.83
2018-11-01T07:32:52.336Z,13.97
2018-11-01T07:35:20.715Z,15.53
2018-11-01T07:37:49.116Z,14.77
2018-11-01T07:40:18.317Z,14.63
2018-11-01T07:42:46.739Z,15.40
2018-11-01T07:45:15.485Z,14.37
2018-11-01T07:47:44.678Z,14.93
2018-11-01T07:50:13.948Z,16.43
2018-11-01T07:52:42.610Z,14.97
2018-11-01T07:55:12.658Z,14.17
2018-11-01T07:57:41.063Z,15.73
2018-11-01T08:00:11.558Z,15.07
2018-11-01T08:02:40.254Z,14.77
2018-11-01T08:05:10.266Z,14.40
2018-11-01T08:07:38.861Z,14.00
2018-11-01T08:10:09.478Z,12.33
2018-11-01T08:12:38.036Z,12.70
2018-11-01T08:15:08.184Z,13.07
2018-11-01T08:17:36.595Z,14.07
2018-11-01T08:20:05.811Z,14.63
2018-11-01T08:22:34.069Z,14.67
2018-11-01T08:25:02.452Z,16.43
2018-11-01T08:27:36.478Z,15.60
2018-11-01T08:30:05.846Z,15.57
2018-11-01T08:32:34.240Z,16.90
2018-11-01T08:35:02.584Z,15.30
2018-11-01T08:37:30.923Z,16.53
2018-11-01T08:39:59.510Z,16.37
2018-11-01T08:42:27.899Z,16.83
2018-11-01T08:44:56.341Z,16.23
2018-11-01T08:47:24.645Z,17.00
2018-11-01T08:49:52.952Z,17.97
2018-11-01T08:52:21.241Z,17.23
2018-11-01T08:54:49.611Z,17.93
2018-11-01T08:57:17.896Z,17.27
2018-11-01T08:59:46.190Z,17.67
2018-11-01T09:02:14.542Z,17.67
2018-11-01T09:04:42.835Z,18.13
2018-11-01T09:07:11.122Z,18.30
2018-11-01T09:09:39.433Z,18.17
2018-11-01T09:12:07.732Z,18.60
2018-11-01T09:14:36.239Z,19.60
2018-11-01T09:17:04.659Z,18.40
2018-11-01T09:19:32.981Z,18.43
2018-11-01T09:22:01.304Z,17.33
2018-11-01T09:24:29.650Z,17.30
2018-11-01T09:26:58.067Z,17.37
2018-11-01T09:29:26.392Z,18.43
2018-11-01T09:31:54.730Z,17.20
2018-11-01T09:34:23.098Z,17.70
2018-11-01T09:36:51.481Z,17.00
2018-11-01T09:39:19.827Z,17.10
2018-11-01T09:41:48.190Z,15.73
2018-11-01T09:44:16.517Z,16.63
2018-11-01T09:46:45.142Z,16.10
2018-11-01T09:49:13.269Z,15.67
2018-11-01T09:51:41.644Z,15.57
2018-11-01T09:54:10.043Z,15.57
2018-11-01T09:56:38.447Z,13.93
2018-11-01T09:59:06.834Z,14.30
2018-11-01T10:01:35.245Z,12.97
2018-11-01T10:04:03.652Z,13.43
2018-11-01T10:06:31.984Z,13.00
2018-11-01T10:09:00.358Z,12.27
2018-11-01T10:11:28.658Z,11.93
2018-11-01T10:13:56.966Z,11.13
2018-11-01T10:16:25.569Z,11.63
2018-11-01T10:18:53.758Z,11.33
2018-11-01T10:21:22.188Z,12.93
2018-11-01T10:23:50.433Z,11.70
2018-11-01T10:26:18.808Z,11.77
2018-11-01T10:28:47.146Z,11.43
2018-11-01T10:31:15.500Z,12.30
2018-11-01T10:33:43.961Z,12.17
2018-11-01T10:36:12.304Z,11.73
2018-11-01T10:38:40.723Z,11.50
2018-11-01T10:41:09.069Z,12.10
2018-11-01T10:43:37.539Z,12.07
2018-11-01T10:46:05.985Z,11.87
2018-11-01T10:48:34.404Z,11.87
2018-11-01T10:51:02.823Z,13.13
2018-11-01T10:53:31.194Z,12.50
2018-11-01T10:55:59.557Z,11.73
2018-11-01T10:58:27.921Z,11.93
2018-11-01T11:01:01.710Z,12.13
2018-11-01T11:03:29.977Z,10.77
2018-11-01T11:05:58.290Z,11.60
2018-11-01T11:08:26.599Z,10.53
2018-11-01T11:10:54.910Z,11.20
2018-11-01T11:13:23.318Z,11.10
2018-11-01T11:15:51.622Z,11.20
2018-11-01T11:18:19.921Z,12.73
2018-11-01T11:20:48.460Z,10.90
2018-11-01T11:23:16.558Z,10.37
2018-11-01T11:25:44.849Z,11.40
2018-11-01T11:28:13.117Z,11.13
2018-11-01T11:30:41.463Z,10.07
2018-11-01T11:33:09.817Z,9.40
2018-11-01T11:35:38.203Z,9.20
2018-11-01T11:38:06.532Z,8.77
2018-11-01T11:40:34.835Z,7.80
2018-11-01T11:43:03.147Z,7.17
2018-11-01T11:45:31.506Z,7.13
2018-11-01T11:47:59.850Z,6.03
2018-11-01T11:50:28.150Z,6.17
2018-11-01T11:52:56.434Z,7.10
2018-11-01T11:55:24.746Z,7.43
2018-11-01T11:57:53.055Z,6.40
2018-11-01T12:00:21.343Z,7.30
2018-11-01T12:02:49.655Z,7.10
2018-11-01T12:05:18.025Z,6.50
2018-11-01T12:07:46.295Z,6.27
2018-11-01T12:10:14.598Z,6.20
2018-11-01T12:12:42.927Z,6.27
2018-11-01T12:15:11.200Z,6.17
2018-11-01T12:17:39.567Z,7.17
2018-11-01T12:20:10.193Z,6.20
2018-11-01T12:22:38.512Z,6.27
2018-11-01T12:25:07.362Z,5.77
2018-11-01T12:27:35.709Z,6.00
2018-11-01T12:30:04.295Z,6.30
2018-11-01T12:32:32.628Z,6.00
2018-11-01T12:35:00.954Z,6.60
2018-11-01T12:37:29.316Z,6.20
2018-11-01T12:39:57.629Z,6.37
2018-11-01T12:42:25.950Z,5.80
2018-11-01T12:44:54.289Z,5.97
2018-11-01T12:47:22.639Z,5.97
2018-11-01T12:49:50.967Z,5.90
2018-11-01T12:52:19.284Z,5.57
2018-11-01T12:54:47.566Z,6.00
2018-11-01T12:57:16.020Z,5.33
2018-11-01T12:59:44.297Z,6.50
2018-11-01T13:02:12.587Z,7.40
2018-11-01T13:04:40.929Z,6.17
2018-11-01T13:07:09.235Z,5.57
2018-11-01T13:09:37.592Z,4.90
2018-11-01T13:12:05.963Z,5.37
2018-11-01T13:14:34.323Z,5.57
2018-11-01T13:17:02.630Z,5.13
2018-11-01T13:19:30.952Z,4.67
2018-11-01T13:21:59.357Z,5.13
2018-11-01T13:24:27.740Z,5.23
2018-11-01T13:26:56.147Z,5.60
2018-11-01T13:29:24.592Z,5.43
2018-11-01T13:31:52.998Z,5.20
2018-11-01T13:34:21.399Z,5.50
2018-11-01T13:36:49.790Z,5.60
2018-11-01T13:39:18.195Z,7.30
2018-11-01T13:41:46.626Z,6.93
2018-11-01T13:44:15.006Z,6.37
2018-11-01T13:46:43.506Z,6.60
2018-11-01T13:49:11.818Z,7.13
2018-11-01T13:51:40.345Z,6.27
2018-11-01T13:54:08.739Z,6.27
2018-11-01T13:56:37.240Z,6.60
2018-11-01T13:59:06.104Z,6.83
2018-11-01T14:01:34.564Z,6.80
2018-11-01T14:04:03.074Z,6.83
2018-11-01T14:06:31.477Z,6.30
2018-11-01T14:08:59.891Z,6.50
2018-11-01T14:11:28.236Z,7.23
2018-11-01T14:13:56.823Z,7.13
2018-11-01T14:16:25.179Z,6.73
2018-11-01T14:18:53.576Z,6.93
2018-11-01T14:21:21.974Z,6.67
2018-11-01T14:24:01.882Z,6.47
2018-11-01T14:26:30.210Z,6.40
2018-11-01T14:28:58.581Z,6.43
2018-11-01T14:31:26.879Z,6.40
2018-11-01T14:33:55.262Z,6.93
2018-11-01T14:36:23.633Z,6.97
2018-11-01T14:38:52.039Z,6.67
2018-11-01T14:41:20.388Z,6.97
2018-11-01T14:43:48.783Z,8.47
2018-11-01T14:46:17.144Z,6.47
2018-11-01T14:48:45.465Z,6.10
2018-11-01T14:51:13.752Z,6.23
2018-11-01T14:53:42.254Z,7.57
2018-11-01T14:56:11.976Z,7.27
2018-11-01T14:58:40.116Z,7.77
2018-11-01T15:01:07.211Z,6.63
2018-11-01T15:03:35.596Z,7.27
2018-11-01T15:06:04.065Z,7.40
2018-11-01T15:08:32.383Z,7.63
2018-11-01T15:11:00.730Z,7.40
2018-11-01T15:13:29.095Z,10.73
2018-11-01T15:15:57.424Z,7.43
2018-11-01T15:18:25.768Z,7.40
2018-11-01T15:20:54.127Z,6.97
2018-11-01T15:23:22.522Z,6.53
2018-11-01T15:25:50.929Z,6.97
2018-11-01T15:28:19.298Z,8.10
2018-11-01T15:30:47.616Z,7.63
2018-11-01T15:33:16.066Z,7.50
2018-11-01T15:35:44.435Z,7.50
2018-11-01T15:38:12.807Z,6.87
2018-11-01T15:40:41.248Z,7.73
2018-11-01T15:43:09.688Z,13.90
2018-11-01T15:45:38.033Z,7.87
2018-11-01T15:48:06.359Z,7.37
2018-11-01T15:50:34.695Z,8.67
2018-11-01T15:53:03.062Z,7.77
2018-11-01T15:55:31.369Z,7.90
2018-11-01T15:57:59.706Z,7.90
2018-11-01T16:00:29.059Z,7.43
2018-11-01T16:02:57.416Z,7.13
2018-11-01T16:05:25.921Z,7.93
2018-11-01T16:07:54.251Z,7.70
2018-11-01T16:10:23.190Z,6.50
2018-11-01T16:12:51.513Z,7.60
2018-11-01T16:15:19.868Z,7.57
2018-11-01T16:17:48.192Z,8.73
2018-11-01T16:20:16.566Z,8.13
2018-11-01T16:22:44.911Z,8.17
2018-11-01T16:25:13.262Z,7.57
2018-11-01T16:27:41.616Z,8.00
2018-11-01T16:30:10.175Z,8.50
2018-11-01T16:32:40.017Z,8.07
2018-11-01T16:35:09.234Z,8.07
2018-11-01T16:37:37.662Z,8.43
2018-11-01T16:40:07.790Z,8.50
2018-11-01T16:42:36.246Z,9.17
2018-11-01T16:45:04.805Z,7.87
2018-11-01T16:47:33.122Z,8.63
2018-11-01T16:50:01.458Z,8.03
2018-11-01T16:52:29.759Z,9.27
2018-11-01T16:56:01.323Z,8.13
2018-11-01T16:58:29.635Z,9.70
2018-11-01T17:00:58.124Z,8.87
2018-11-01T17:03:26.525Z,8.87
2018-11-01T17:05:54.889Z,8.50
2018-11-01T17:08:24.981Z,8.30
2018-11-01T17:10:53.352Z,8.03
2018-11-01T17:13:22.515Z,8.67
2018-11-01T17:15:50.949Z,7.17
2018-11-01T17:18:19.305Z,9.40
2018-11-01T17:20:47.786Z,9.10
2018-11-01T17:23:16.196Z,8.33
2018-11-01T17:25:44.608Z,9.60
2018-11-01T17:28:13.002Z,9.13
2018-11-01T17:33:24.362Z,9.80
2018-11-01T17:35:52.779Z,8.20
2018-11-01T17:38:21.058Z,8.90
2018-11-01T17:40:49.394Z,7.60
2018-11-01T17:43:17.787Z,8.27
2018-11-01T17:45:46.154Z,10.73
2018-11-01T17:48:14.502Z,14.40
2018-11-01T17:50:42.831Z,7.50
2018-11-01T17:53:11.163Z,8.23
2018-11-01T17:55:39.520Z,7.90
2018-11-01T17:58:08.020Z,8.70
2018-11-01T18:00:36.481Z,8.63
2018-11-01T18:03:04.898Z,7.83
2018-11-01T18:05:33.297Z,7.07
2018-11-01T18:08:01.609Z,6.90
2018-11-01T18:10:30.084Z,7.87
2018-11-01T18:12:58.421Z,7.07
2018-11-01T18:15:26.794Z,7.30
2018-11-01T18:17:55.204Z,7.20
2018-11-01T18:20:23.550Z,7.33
2018-11-01T18:22:51.870Z,7.53
2018-11-01T18:25:20.253Z,7.57
2018-11-01T18:27:48.627Z,7.77
2018-11-01T18:30:17.691Z,8.07
2018-11-01T18:32:46.525Z,8.30
2018-11-01T18:35:14.966Z,7.10
2018-11-01T18:37:43.556Z,7.07
2018-11-01T18:40:15.072Z,7.50
2018-11-01T18:42:43.503Z,7.33
2018-11-01T18:45:14.026Z,7.97
2018-11-01T18:47:43.206Z,9.97
2018-11-01T18:50:13.431Z,8.47
2018-11-01T18:52:43.178Z,6.13
2018-11-01T18:55:13.078Z,6.67
2018-11-01T18:57:42.134Z,6.63
2018-11-01T19:00:14.281Z,7.00
2018-11-01T19:02:42.577Z,7.03
2018-11-01T19:05:11.550Z,5.70
2018-11-01T19:07:40.222Z,6.67
2018-11-01T19:10:09.569Z,6.07
2018-11-01T19:12:37.986Z,5.97
2018-11-01T19:15:07.891Z,5.43
2018-11-01T19:17:36.402Z,5.70
2018-11-01T19:20:06.063Z,5.77
2018-11-01T19:22:34.460Z,5.73
2018-11-01T19:25:02.825Z,5.87
2018-11-01T19:27:31.536Z,5.73
2018-11-01T19:29:59.736Z,4.70
2018-11-01T19:32:28.186Z,5.53
2018-11-01T19:34:56.612Z,5.47
2018-11-01T19:37:25.044Z,5.40
2018-11-01T19:39:53.671Z,5.77
2018-11-01T19:42:22.021Z,5.93
2018-11-01T19:44:50.405Z,6.70
2018-11-01T19:47:18.786Z,4.93
2018-11-01T19:49:47.204Z,4.93
2018-11-01T19:52:15.605Z,5.40
2018-11-01T19:54:44.005Z,4.67
2018-11-01T19:57:12.437Z,5.40
2018-11-01T19:59:40.834Z,5.90
2018-11-01T20:02:09.389Z,7.33
2018-11-01T20:04:37.799Z,5.67
2018-11-01T20:07:06.213Z,6.07
2018-11-01T20:09:34.658Z,5.13
2018-11-01T20:12:03.134Z,5.40
2018-11-01T20:14:31.535Z,6.00
2018-11-01T20:16:59.944Z,5.73
2018-11-01T20:19:28.436Z,5.20
2018-11-01T20:21:56.859Z,5.40
2018-11-01T20:24:25.294Z,5.13
2018-11-01T20:26:53.774Z,5.30
2018-11-01T20:29:22.151Z,5.53
2018-11-01T20:31:50.640Z,5.37
2018-11-01T20:34:19.000Z,5.03
2018-11-01T20:36:47.297Z,5.90
2018-11-01T20:39:15.628Z,5.70
2018-11-01T20:41:43.968Z,5.70
2018-11-01T20:44:12.999Z,5.80
2018-11-01T20:46:41.398Z,5.00
2018-11-01T20:49:09.777Z,5.23
2018-11-01T20:51:38.139Z,5.40
2018-11-01T20:54:06.575Z,5.80
2018-11-01T20:56:34.978Z,5.90
2018-11-01T20:59:03.324Z,5.43
2018-11-01T21:01:31.706Z,6.13
2018-11-01T21:04:00.076Z,10.80
2018-11-01T21:06:28.397Z,6.33
2018-11-01T21:08:56.830Z,5.60
2018-11-01T21:11:25.329Z,5.93
2018-11-01T21:13:53.625Z,6.73
2018-11-01T21:16:21.943Z,5.77
2018-11-01T21:18:50.392Z,5.50
2018-11-01T21:21:18.708Z,6.23
2018-11-01T21:23:47.016Z,5.60
2018-11-01T21:26:15.329Z,6.87
2018-11-01T21:28:43.649Z,6.90
2018-11-01T21:31:11.962Z,6.13
2018-11-01T21:33:40.331Z,6.00
2018-11-01T21:36:08.708Z,6.37
2018-11-01T21:38:37.020Z,6.63
2018-11-01T21:41:05.726Z,6.50
2018-11-01T21:43:34.128Z,5.90
2018-11-01T21:46:02.531Z,6.07
2018-11-01T21:48:30.877Z,6.10
2018-11-01T21:50:59.215Z,6.00
2018-11-01T21:53:27.822Z,5.97
2018-11-01T21:55:56.097Z,6.27
2018-11-01T21:58:24.458Z,5.80
2018-11-01T22:00:52.791Z,5.77
2018-11-01T22:03:21.171Z,6.47
2018-11-01T22:05:49.506Z,12.57
2018-11-01T22:08:17.861Z,11.70
2018-11-01T22:10:46.182Z,10.23
2018-11-01T22:13:14.486Z,10.33
2018-11-01T22:15:42.836Z,9.60
2018-11-01T22:18:11.165Z,9.67
2018-11-01T22:20:39.512Z,6.53
2018-11-01T22:23:07.821Z,6.00
2018-11-01T22:25:36.156Z,5.40
2018-11-01T22:28:04.983Z,6.53
2018-11-01T22:30:33.317Z,5.90
2018-11-01T22:33:01.696Z,5.37
2018-11-01T22:35:30.012Z,5.70
2018-11-01T22:37:58.366Z,8.07
2018-11-01T22:40:26.682Z,6.93
2018-11-01T22:42:55.070Z,8.57
2018-11-01T22:45:23.425Z,8.03
2018-11-01T22:47:51.755Z,5.97
2018-11-01T22:50:20.070Z,5.73
2018-11-01T22:52:48.390Z,5.70
2018-11-01T22:55:16.719Z,6.23
2018-11-01T22:57:45.118Z,5.63
2018-11-01T23:00:14.684Z,5.73
2018-11-01T23:02:43.463Z,5.37
2018-11-01T23:05:12.012Z,5.40
2018-11-01T23:07:40.444Z,5.50
2018-11-01T23:10:11.187Z,5.60
2018-11-01T23:12:39.787Z,6.63
2018-11-01T23:15:09.260Z,6.30
2018-11-01T23:17:37.947Z,6.40
2018-11-01T23:20:06.539Z,6.03
2018-11-01T23:22:35.081Z,5.60
2018-11-01T23:25:03.426Z,5.80
2018-11-01T23:27:31.808Z,6.07
2018-11-01T23:30:00.242Z,5.80
2018-11-01T23:32:28.597Z,5.67
2018-11-01T23:34:57.136Z,5.73
2018-11-01T23:37:30.963Z,5.83
2018-11-01T23:47:16.077Z,5.83
2018-11-01T23:50:03.477Z,5.37
2018-11-01T23:52:32.941Z,5.73
2018-11-01T23:55:01.298Z,5.80
2018-11-01T23:57:29.767Z,6.30
2018-11-01T23:59:58.276Z,5.80
